Terminal Aerodrome Forecast
Issued by NWS

Home | Current Version | Previous Version | Text Only | Print | Product List | Glossary On
Versions: 1 2 3 4 5 6 7 8 9 10 11 12 13 14 15 16 17 18 19 20 21 22 23 24 25 26 27 28 29 30 31 32 33 34 35 36 37 38
265
FTUS41 KBOX 211124
TAFBAF
TAF
KBAF 211124Z 2112/2212 00000KT 1/2SM FG OVC002
     FM211500 00000KT 4SM BR SCT002 BKN015
     FM211700 23005KT P6SM SCT015 BKN050
     FM212100 25004KT P6SM SCT250
     FM220900 00000KT 3SM BR BKN050=

USA.gov is the U.S. government's official web portal to all federal, state and local government web resources and services.